Tilton, IL (61833)

6:46 AM CDT on July 07, 2015 (GMT -0500)
APRSWXNET | | Change Station
CLOSE
Current Station
Personal Weather Station
Location: Tilton, IL
Elevation: 626 ft
Nearby Weather Stations

Elev 626 ft 40.11 °N, 87.64 °W | Updated 35 minutes ago

Overcast
Overcast
76 °F
Feels Like 76 °F
N
2
Wind Variable Wind from West
Gusts 7.0 mph

Today
High -- | Low -- °F
--% Chance of Precip.
Yesterday
High -- | Low -- °F
Precip. -- in
5:28 AM 8:22 PM
Waning Gibbous, 65% visible
Pressure 29.88 in
Visibility 5.0 miles
Clouds Mostly Cloudy 900 ft
Mostly Cloudy 1500 ft
Overcast 4800 ft
Heat Index 76 °F
Dew Point 72 °F
Humidity 88%
Rainfall in
Snow Depth Not available.
UV 0 out of 12
Pollen .50 out of 12
Air Quality Not available.
Flu Activity Not available.
METAR KDNV 071135Z AUTO 27009KT 5SM -RA BKN009 BKN015 OVC048 23/22 A2988 RMK AO2 T02300223

More Conditions Fewer Conditions

Pressure 29.88 in
Visibility 5.0 miles
Clouds Mostly Cloudy 900 ft
Mostly Cloudy 1500 ft
Overcast 4800 ft
Heat Index 76 °F
Dew Point 72 °F
Humidity 88%
Rainfall in
Snow Depth Not available.
UV 0 out of 12
Pollen .50 out of 12
Air Quality Not available.
Flu Activity Not available.
METAR KDNV 071135Z AUTO 27009KT 5SM -RA BKN009 BKN015 OVC048 23/22 A2988 RMK AO2 T02300223

More Conditions Fewer Conditions

10-Day Weather Forecast

×

Almanac

Astronomy

Jul. 07, 2015 Rise Set
Actual Time
Civil Twilight
Nautical Twilight
Astronomical Twilight
Moon
Length of Visible Light
Length of Day
Tomorrow will be .
, % of the Moon is Illuminated

Today's Extremes

State Highs State Lows

Community

WunderPhotos

Upload Photos

1,835,770 photos uploaded!

WunderBlogs® & News

Nearby

Air Quality

  Air Quality AQ Index Pollutant
Not available.

Snow Depth

Station Depth Elevation

Earthquake Activity

City Distance Mag. Time & Date
Minimum magnitude displayed is 2.5.

Coastal Water Temperatures

Place Temperature

Stations

Nearby Weather Stations

Station Location Temp. Windchill Dew Point Humidity Wind Precip. Elev Updated Type